עמוד ראשי
METAR-TAF:

METAR-TAF

שדות תעופה :

סנטיאגו דה קובה, קובה

קו רוחב: 19-58N, קו אורך: 075-51W, גובה: 69מטר

תצפית מזג אוויר נוכחית

הדו"ח נערך לפני 50דקות, בשעה 09:50 UTC
רוח 3קשר מכיוון צפון/צפון-מזרח
טמפרטורת 26 צלסיוס
לחות 84%
לחץ 1014 hPa
ראות: 9000מטר
מעט עננים בגובה 2000רגל

METAR: MUCU 270950Z 02003KT 9000 FEW020 26/23 Q1014

זמן: 06:40 (10:40 UTC)

תחזית

הדו"ח נערך לפני 5 שעות ו 40דקות, בשעה 05:00 UTC
תחזית בתוקף מ 27 ב 06 UTC עד 28 ב 06 UTC
רוח 4קשר עם כיוונים משתנים
ראות: 9000מטר
עננים פזורים בגובה 2000רגל
זמנית מ -
27 ב 18 UTC עד 27 ב 24 UTC
רוח 8קשר מכיוון דרום
מעט עננים בגובה 1800רגל , קומולונימבוס.
עננים בינוניים בגובה 2000רגל

TAF: MUCU 270500Z 2706/2806 VRB04KT 9000 SCT020 TEMPO 2718/2724 18008KT FEW018CB BKN020

תצפיות ותחזיות מזג אוויר לגבי יותר מ- 4,000 שדות תעופה ברחבי העולם. דוחות METAR ו- TAF.

התחנות הזמינות מסומנות בנקודות צהובות ואדומות על גבי המפה.

העבר את העכבר לנקודה הצבעונית על מנת לראות את שם התחנה.

לאחר מכן, לחץ כדי לראות את תוכן ואת תחזיות מזג האוויר.

כדי לשנות את המפה: לחץ על הכפתורים הירוקים עם הפלוס השחור כדי להתקרב; על הכפתור הירוק עם המקף כדי להתרחק; או בחיצים הירוקים למפות סמוכות.


METAR-TAF: